Portada
METAR-TAF:

METAR-TAF

Aeroports :

Dar es Salaam, Tanzània

latitud: 06-52S, longitud: 039-12E, altitud: 55 m

Observació

L'informe es va fer fa 1 hora i 17 minuts, a les 10:00 UTC
Vent 10 kt del Nord
Temperatura 29°C
Humitat 79%
Pressió 1011 hPa
Visibilitat 10 km o més
Núvols disperses a una alçada de 1400 ft
Escasses núvols a una alçada de 1600 ft, Cumulonimbus.
Cel cobert a una alçada de 8000 ft

METAR: HTDA 241000Z 35010KT 9999 SCT014 FEW016CB OVC080 29/25 Q1011 NOSIG

Hora: 14:17 (11:17 UTC)

Pronòstic

L'informe es va fer fa 6 hores i 17 minuts, a les 05:00 UTC
Pronòstic vàlid del 24 a les 06 UTC al 25 a les 06 UTC
Vent 15 kt del Nord/Nord-Est
Visibilitat 10 km o més
Cel ennuvolat a una alçada de 1800 ft
Escasses núvols a una alçada de 1900 ft, Cumulonimbus.

TAF: HTDA 240500Z 2406/2506 02015KT 9999 BKN018 FEW019CB

Observacions i pronòstics meteorològics de més de 4000 aeroports (METAR i TAF).

Les estacions disponibles són els punts grocs i vermells al mapa.

Posi el ratolí al punt desitjat per veure el nom de l'estació.

Feu clic per veure les observacions i els pronòstics meteorològics.

Per canviar el mapa: feu clic els botons verds amb una creu de color negre per apropar; al botó verd amb un guió per allunyar la imatge; o en les fletxes verdes per a mapes adjacents.


METAR-TAF: